sensor_id;sensor_type;location;lat;lon;timestamp;temperature;humidity
64226;DHT22;50545;56.064;26.178;2023-06-24T00:00:36;15.80;99.90
64226;DHT22;50545;56.064;26.178;2023-06-24T00:03:05;15.80;99.90
64226;DHT22;50545;56.064;26.178;2023-06-24T00:05:35;15.70;99.90
64226;DHT22;50545;56.064;26.178;2023-06-24T00:08:02;15.70;99.90
64226;DHT22;50545;56.064;26.178;2023-06-24T00:10:30;15.60;99.90
64226;DHT22;50545;56.064;26.178;2023-06-24T00:12:57;15.60;99.90
64226;DHT22;50545;56.064;26.178;2023-06-24T00:15:28;15.50;99.90
64226;DHT22;50545;56.064;26.178;2023-06-24T00:17:55;15.40;99.90
64226;DHT22;50545;56.064;26.178;2023-06-24T00:20:33;15.40;99.90
64226;DHT22;50545;56.064;26.178;2023-06-24T00:23:01;15.40;99.90
64226;DHT22;50545;56.064;26.178;2023-06-24T00:25:29;15.30;99.90
64226;DHT22;50545;56.064;26.178;2023-06-24T00:27:57;15.20;99.90
64226;DHT22;50545;56.064;26.178;2023-06-24T00:30:26;15.20;99.90
64226;DHT22;50545;56.064;26.178;2023-06-24T00:32:53;15.10;99.90
64226;DHT22;50545;56.064;26.178;2023-06-24T00:35:21;15.10;99.90
64226;DHT22;50545;56.064;26.178;2023-06-24T00:37:48;15.10;99.90
64226;DHT22;50545;56.064;26.178;2023-06-24T00:40:16;15.20;99.90
64226;DHT22;50545;56.064;26.178;2023-06-24T00:42:45;15.20;99.90
64226;DHT22;50545;56.064;26.178;2023-06-24T00:45:13;15.20;99.90
64226;DHT22;50545;56.064;26.178;2023-06-24T00:47:41;15.20;99.90
64226;DHT22;50545;56.064;26.178;2023-06-24T00:50:08;15.20;99.90
64226;DHT22;50545;56.064;26.178;2023-06-24T00:52:39;15.30;99.90
64226;DHT22;50545;56.064;26.178;2023-06-24T00:55:11;15.20;99.90
64226;DHT22;50545;56.064;26.178;2023-06-24T00:57:40;15.20;99.90
64226;DHT22;50545;56.064;26.178;2023-06-24T01:00:08;15.20;99.90
64226;DHT22;50545;56.064;26.178;2023-06-24T01:02:41;15.20;99.90
64226;DHT22;50545;56.064;26.178;2023-06-24T01:05:10;15.20;99.90
64226;DHT22;50545;56.064;26.178;2023-06-24T01:07:39;15.30;99.90
64226;DHT22;50545;56.064;26.178;2023-06-24T01:10:07;15.30;99.90
64226;DHT22;50545;56.064;26.178;2023-06-24T01:12:37;15.30;99.90
64226;DHT22;50545;56.064;26.178;2023-06-24T01:15:08;15.30;99.90
64226;DHT22;50545;56.064;26.178;2023-06-24T01:17:44;15.20;99.90
64226;DHT22;50545;56.064;26.178;2023-06-24T01:20:36;15.30;99.90
64226;DHT22;50545;56.064;26.178;2023-06-24T01:26:19;15.40;99.90
64226;DHT22;50545;56.064;26.178;2023-06-24T01:32:33;15.40;99.90
64226;DHT22;50545;56.064;26.178;2023-06-24T01:35:16;15.40;99.90
64226;DHT22;50545;56.064;26.178;2023-06-24T01:37:59;15.40;99.90
64226;DHT22;50545;56.064;26.178;2023-06-24T01:40:33;15.40;99.90
64226;DHT22;50545;56.064;26.178;2023-06-24T01:43:03;15.30;99.90
64226;DHT22;50545;56.064;26.178;2023-06-24T01:45:48;15.40;99.90
64226;DHT22;50545;56.064;26.178;2023-06-24T01:48:22;15.30;99.90
64226;DHT22;50545;56.064;26.178;2023-06-24T01:51:12;15.30;99.90
64226;DHT22;50545;56.064;26.178;2023-06-24T01:53:43;15.30;99.90
64226;DHT22;50545;56.064;26.178;2023-06-24T01:56:14;15.30;99.90
64226;DHT22;50545;56.064;26.178;2023-06-24T01:58:43;15.30;99.90
64226;DHT22;50545;56.064;26.178;2023-06-24T02:01:12;15.30;99.90
64226;DHT22;50545;56.064;26.178;2023-06-24T02:03:41;15.30;99.90
64226;DHT22;50545;56.064;26.178;2023-06-24T02:06:09;15.30;99.90
64226;DHT22;50545;56.064;26.178;2023-06-24T02:08:40;15.30;99.90
64226;DHT22;50545;56.064;26.178;2023-06-24T02:11:09;15.30;99.90
64226;DHT22;50545;56.064;26.178;2023-06-24T02:13:37;15.30;99.90
64226;DHT22;50545;56.064;26.178;2023-06-24T02:16:08;15.20;99.90
64226;DHT22;50545;56.064;26.178;2023-06-24T02:18:38;15.20;99.90
64226;DHT22;50545;56.064;26.178;2023-06-24T02:21:09;15.20;99.90
64226;DHT22;50545;56.064;26.178;2023-06-24T02:23:37;15.20;99.90
64226;DHT22;50545;56.064;26.178;2023-06-24T02:26:06;15.20;99.90
64226;DHT22;50545;56.064;26.178;2023-06-24T02:28:34;15.30;99.90
64226;DHT22;50545;56.064;26.178;2023-06-24T02:31:02;15.30;99.90
64226;DHT22;50545;56.064;26.178;2023-06-24T02:33:29;15.40;99.90
64226;DHT22;50545;56.064;26.178;2023-06-24T02:35:57;15.40;99.90
64226;DHT22;50545;56.064;26.178;2023-06-24T02:38:24;15.40;99.90
64226;DHT22;50545;56.064;26.178;2023-06-24T02:40:54;15.40;99.90
64226;DHT22;50545;56.064;26.178;2023-06-24T02:43:21;15.50;99.90
64226;DHT22;50545;56.064;26.178;2023-06-24T02:45:49;15.50;99.90
64226;DHT22;50545;56.064;26.178;2023-06-24T02:48:18;15.50;99.90
64226;DHT22;50545;56.064;26.178;2023-06-24T02:50:46;15.60;99.90
64226;DHT22;50545;56.064;26.178;2023-06-24T02:53:14;15.60;99.90
64226;DHT22;50545;56.064;26.178;2023-06-24T02:55:43;15.60;99.90
64226;DHT22;50545;56.064;26.178;2023-06-24T02:58:11;15.70;99.90
64226;DHT22;50545;56.064;26.178;2023-06-24T03:00:39;15.70;99.90
64226;DHT22;50545;56.064;26.178;2023-06-24T03:03:06;15.80;99.90
64226;DHT22;50545;56.064;26.178;2023-06-24T03:05:36;15.80;99.90
64226;DHT22;50545;56.064;26.178;2023-06-24T03:08:04;15.80;99.90
64226;DHT22;50545;56.064;26.178;2023-06-24T03:10:32;15.80;99.90
64226;DHT22;50545;56.064;26.178;2023-06-24T03:12:59;15.80;99.90
64226;DHT22;50545;56.064;26.178;2023-06-24T03:15:26;15.90;99.90
64226;DHT22;50545;56.064;26.178;2023-06-24T03:17:55;15.90;99.90
64226;DHT22;50545;56.064;26.178;2023-06-24T03:20:23;15.90;99.90
64226;DHT22;50545;56.064;26.178;2023-06-24T03:22:50;16.00;99.90
64226;DHT22;50545;56.064;26.178;2023-06-24T03:25:19;16.00;99.90
64226;DHT22;50545;56.064;26.178;2023-06-24T03:27:46;16.10;99.90
64226;DHT22;50545;56.064;26.178;2023-06-24T03:30:13;16.10;99.90
64226;DHT22;50545;56.064;26.178;2023-06-24T03:32:41;16.20;99.90
64226;DHT22;50545;56.064;26.178;2023-06-24T03:35:14;16.20;99.90
64226;DHT22;50545;56.064;26.178;2023-06-24T03:37:41;16.30;99.90
64226;DHT22;50545;56.064;26.178;2023-06-24T03:40:08;16.40;99.90
64226;DHT22;50545;56.064;26.178;2023-06-24T03:42:36;16.40;99.90
64226;DHT22;50545;56.064;26.178;2023-06-24T03:45:04;16.50;99.90
64226;DHT22;50545;56.064;26.178;2023-06-24T03:47:31;16.60;99.90
64226;DHT22;50545;56.064;26.178;2023-06-24T03:49:58;16.60;99.80
64226;DHT22;50545;56.064;26.178;2023-06-24T03:52:26;16.70;99.80
64226;DHT22;50545;56.064;26.178;2023-06-24T03:54:53;16.70;99.20
64226;DHT22;50545;56.064;26.178;2023-06-24T03:57:20;16.80;98.80
64226;DHT22;50545;56.064;26.178;2023-06-24T03:59:49;16.80;98.70
64226;DHT22;50545;56.064;26.178;2023-06-24T04:02:16;16.90;99.00
64226;DHT22;50545;56.064;26.178;2023-06-24T04:04:44;16.90;98.70
64226;DHT22;50545;56.064;26.178;2023-06-24T04:07:12;16.90;98.40
64226;DHT22;50545;56.064;26.178;2023-06-24T04:09:40;17.00;98.50
64226;DHT22;50545;56.064;26.178;2023-06-24T04:12:08;17.10;98.20
64226;DHT22;50545;56.064;26.178;2023-06-24T04:14:35;17.10;98.10
64226;DHT22;50545;56.064;26.178;2023-06-24T04:17:03;17.10;98.40
64226;DHT22;50545;56.064;26.178;2023-06-24T04:19:31;17.20;98.00
64226;DHT22;50545;56.064;26.178;2023-06-24T04:21:58;17.20;96.50
64226;DHT22;50545;56.064;26.178;2023-06-24T04:24:25;17.30;95.80
64226;DHT22;50545;56.064;26.178;2023-06-24T04:26:52;17.30;95.90
64226;DHT22;50545;56.064;26.178;2023-06-24T04:29:20;17.30;95.70
64226;DHT22;50545;56.064;26.178;2023-06-24T04:31:47;17.40;96.00
64226;DHT22;50545;56.064;26.178;2023-06-24T04:34:16;17.50;95.30
64226;DHT22;50545;56.064;26.178;2023-06-24T04:36:44;17.50;95.50
64226;DHT22;50545;56.064;26.178;2023-06-24T04:39:11;17.60;95.20
64226;DHT22;50545;56.064;26.178;2023-06-24T04:41:38;17.70;94.00
64226;DHT22;50545;56.064;26.178;2023-06-24T04:44:06;17.80;94.60
64226;DHT22;50545;56.064;26.178;2023-06-24T04:46:33;17.90;94.00
64226;DHT22;50545;56.064;26.178;2023-06-24T04:49:01;17.90;93.20
64226;DHT22;50545;56.064;26.178;2023-06-24T04:51:29;18.00;93.20
64226;DHT22;50545;56.064;26.178;2023-06-24T04:53:56;18.10;92.50
64226;DHT22;50545;56.064;26.178;2023-06-24T04:56:24;18.20;92.70
64226;DHT22;50545;56.064;26.178;2023-06-24T04:58:51;18.20;92.20
64226;DHT22;50545;56.064;26.178;2023-06-24T05:01:19;18.30;92.30
64226;DHT22;50545;56.064;26.178;2023-06-24T05:03:47;18.30;92.10
64226;DHT22;50545;56.064;26.178;2023-06-24T05:06:14;18.40;92.60
64226;DHT22;50545;56.064;26.178;2023-06-24T05:08:41;18.40;92.20
64226;DHT22;50545;56.064;26.178;2023-06-24T05:11:09;18.50;92.90
64226;DHT22;50545;56.064;26.178;2023-06-24T05:13:37;18.60;91.30
64226;DHT22;50545;56.064;26.178;2023-06-24T05:16:05;18.70;89.60
64226;DHT22;50545;56.064;26.178;2023-06-24T05:18:32;18.70;90.50
64226;DHT22;50545;56.064;26.178;2023-06-24T05:20:59;18.80;90.00
64226;DHT22;50545;56.064;26.178;2023-06-24T05:23:28;18.80;90.30
64226;DHT22;50545;56.064;26.178;2023-06-24T05:25:55;18.80;89.20
64226;DHT22;50545;56.064;26.178;2023-06-24T05:28:22;18.90;89.40
64226;DHT22;50545;56.064;26.178;2023-06-24T05:30:50;19.00;87.40
64226;DHT22;50545;56.064;26.178;2023-06-24T05:33:17;19.20;87.40
64226;DHT22;50545;56.064;26.178;2023-06-24T05:35:44;19.20;85.40
64226;DHT22;50545;56.064;26.178;2023-06-24T05:38:11;19.40;85.00
64226;DHT22;50545;56.064;26.178;2023-06-24T05:40:39;19.40;85.20
64226;DHT22;50545;56.064;26.178;2023-06-24T05:43:06;19.60;84.50
64226;DHT22;50545;56.064;26.178;2023-06-24T05:45:33;19.60;84.20
64226;DHT22;50545;56.064;26.178;2023-06-24T05:48:03;19.80;83.50
64226;DHT22;50545;56.064;26.178;2023-06-24T05:50:30;19.90;84.90
64226;DHT22;50545;56.064;26.178;2023-06-24T05:52:58;20.00;83.00
64226;DHT22;50545;56.064;26.178;2023-06-24T05:55:25;20.10;83.00
64226;DHT22;50545;56.064;26.178;2023-06-24T05:57:52;20.20;82.80
64226;DHT22;50545;56.064;26.178;2023-06-24T06:00:19;20.20;81.80
64226;DHT22;50545;56.064;26.178;2023-06-24T06:02:47;20.20;83.10
64226;DHT22;50545;56.064;26.178;2023-06-24T06:05:14;20.30;81.30
64226;DHT22;50545;56.064;26.178;2023-06-24T06:07:42;20.30;82.00
64226;DHT22;50545;56.064;26.178;2023-06-24T06:10:10;20.30;82.10
64226;DHT22;50545;56.064;26.178;2023-06-24T06:12:37;20.20;80.60
64226;DHT22;50545;56.064;26.178;2023-06-24T06:15:05;20.20;80.30
64226;DHT22;50545;56.064;26.178;2023-06-24T06:17:32;20.30;81.30
64226;DHT22;50545;56.064;26.178;2023-06-24T06:20:00;20.40;82.00
64226;DHT22;50545;56.064;26.178;2023-06-24T06:22:27;20.50;79.20
64226;DHT22;50545;56.064;26.178;2023-06-24T06:24:55;20.70;80.00
64226;DHT22;50545;56.064;26.178;2023-06-24T06:27:22;20.70;77.40
64226;DHT22;50545;56.064;26.178;2023-06-24T06:29:49;20.80;78.00
64226;DHT22;50545;56.064;26.178;2023-06-24T06:32:16;20.90;80.10
64226;DHT22;50545;56.064;26.178;2023-06-24T06:34:44;21.00;78.30
64226;DHT22;50545;56.064;26.178;2023-06-24T06:37:11;21.10;76.70
64226;DHT22;50545;56.064;26.178;2023-06-24T06:39:38;21.20;76.60
64226;DHT22;50545;56.064;26.178;2023-06-24T06:42:06;21.30;76.20
64226;DHT22;50545;56.064;26.178;2023-06-24T06:44:33;21.50;78.40
64226;DHT22;50545;56.064;26.178;2023-06-24T06:47:00;21.60;76.60
64226;DHT22;50545;56.064;26.178;2023-06-24T06:49:28;21.70;75.60
64226;DHT22;50545;56.064;26.178;2023-06-24T06:51:55;21.80;77.60
64226;DHT22;50545;56.064;26.178;2023-06-24T06:54:22;21.90;75.80
64226;DHT22;50545;56.064;26.178;2023-06-24T06:56:49;22.00;74.60
64226;DHT22;50545;56.064;26.178;2023-06-24T06:59:17;22.10;75.30
64226;DHT22;50545;56.064;26.178;2023-06-24T07:01:44;22.10;73.00
64226;DHT22;50545;56.064;26.178;2023-06-24T07:04:12;22.10;73.60
64226;DHT22;50545;56.064;26.178;2023-06-24T07:06:39;22.10;73.60
64226;DHT22;50545;56.064;26.178;2023-06-24T07:09:06;22.10;72.30
64226;DHT22;50545;56.064;26.178;2023-06-24T07:11:34;22.10;73.50
64226;DHT22;50545;56.064;26.178;2023-06-24T07:14:01;22.20;74.80
64226;DHT22;50545;56.064;26.178;2023-06-24T07:16:29;22.20;72.60
64226;DHT22;50545;56.064;26.178;2023-06-24T07:18:56;22.30;74.50
64226;DHT22;50545;56.064;26.178;2023-06-24T07:21:23;22.40;71.80
64226;DHT22;50545;56.064;26.178;2023-06-24T07:23:51;22.40;71.50
64226;DHT22;50545;56.064;26.178;2023-06-24T07:26:18;22.40;71.50
64226;DHT22;50545;56.064;26.178;2023-06-24T07:28:46;22.40;71.80
64226;DHT22;50545;56.064;26.178;2023-06-24T07:31:34;22.40;70.50
64226;DHT22;50545;56.064;26.178;2023-06-24T07:34:01;22.40;73.30
64226;DHT22;50545;56.064;26.178;2023-06-24T07:36:29;22.50;70.00
64226;DHT22;50545;56.064;26.178;2023-06-24T07:38:56;22.50;72.40
64226;DHT22;50545;56.064;26.178;2023-06-24T07:41:24;22.60;70.50
64226;DHT22;50545;56.064;26.178;2023-06-24T07:43:51;22.60;69.40
64226;DHT22;50545;56.064;26.178;2023-06-24T07:46:18;22.70;70.60
64226;DHT22;50545;56.064;26.178;2023-06-24T07:48:46;22.60;69.70
64226;DHT22;50545;56.064;26.178;2023-06-24T07:51:13;22.70;70.00
64226;DHT22;50545;56.064;26.178;2023-06-24T07:53:40;22.70;70.90
64226;DHT22;50545;56.064;26.178;2023-06-24T07:56:07;22.80;70.10
64226;DHT22;50545;56.064;26.178;2023-06-24T07:58:36;22.90;70.90
64226;DHT22;50545;56.064;26.178;2023-06-24T08:01:05;23.00;72.80
64226;DHT22;50545;56.064;26.178;2023-06-24T08:03:33;23.10;69.70
64226;DHT22;50545;56.064;26.178;2023-06-24T08:06:04;23.20;68.60
64226;DHT22;50545;56.064;26.178;2023-06-24T08:08:31;23.40;69.20
64226;DHT22;50545;56.064;26.178;2023-06-24T08:10:59;23.50;69.70
64226;DHT22;50545;56.064;26.178;2023-06-24T08:13:26;23.30;67.00
64226;DHT22;50545;56.064;26.178;2023-06-24T08:15:53;23.20;71.40
64226;DHT22;50545;56.064;26.178;2023-06-24T08:18:21;23.40;71.80
64226;DHT22;50545;56.064;26.178;2023-06-24T08:20:48;23.40;67.40
64226;DHT22;50545;56.064;26.178;2023-06-24T08:23:15;23.70;66.50
64226;DHT22;50545;56.064;26.178;2023-06-24T08:25:43;23.80;66.00
64226;DHT22;50545;56.064;26.178;2023-06-24T08:28:10;23.80;66.30
64226;DHT22;50545;56.064;26.178;2023-06-24T08:30:38;23.80;65.60
64226;DHT22;50545;56.064;26.178;2023-06-24T08:33:05;23.90;68.40
64226;DHT22;50545;56.064;26.178;2023-06-24T08:35:32;24.10;69.20
64226;DHT22;50545;56.064;26.178;2023-06-24T08:38:00;24.30;66.60
64226;DHT22;50545;56.064;26.178;2023-06-24T08:40:27;24.40;65.90
64226;DHT22;50545;56.064;26.178;2023-06-24T08:42:55;24.20;66.30
64226;DHT22;50545;56.064;26.178;2023-06-24T08:45:25;23.80;64.40
64226;DHT22;50545;56.064;26.178;2023-06-24T08:47:52;23.60;65.40
64226;DHT22;50545;56.064;26.178;2023-06-24T08:50:25;23.40;65.20
64226;DHT22;50545;56.064;26.178;2023-06-24T08:52:54;23.50;65.70
64226;DHT22;50545;56.064;26.178;2023-06-24T08:55:23;23.70;67.90
64226;DHT22;50545;56.064;26.178;2023-06-24T08:57:51;24.00;64.80
64226;DHT22;50545;56.064;26.178;2023-06-24T09:00:18;24.30;68.10
64226;DHT22;50545;56.064;26.178;2023-06-24T09:02:45;24.70;68.00
64226;DHT22;50545;56.064;26.178;2023-06-24T09:05:13;24.90;65.30
64226;DHT22;50545;56.064;26.178;2023-06-24T09:07:40;25.20;63.80
64226;DHT22;50545;56.064;26.178;2023-06-24T09:10:07;25.20;59.80
64226;DHT22;50545;56.064;26.178;2023-06-24T09:12:35;24.60;58.70
64226;DHT22;50545;56.064;26.178;2023-06-24T09:15:03;24.30;61.30
64226;DHT22;50545;56.064;26.178;2023-06-24T09:17:30;24.20;63.70
64226;DHT22;50545;56.064;26.178;2023-06-24T09:20:04;24.20;63.70
64226;DHT22;50545;56.064;26.178;2023-06-24T09:22:32;24.30;59.80
64226;DHT22;50545;56.064;26.178;2023-06-24T09:25:01;24.40;60.80
64226;DHT22;50545;56.064;26.178;2023-06-24T09:27:31;24.60;60.10
64226;DHT22;50545;56.064;26.178;2023-06-24T09:30:00;24.90;58.30
64226;DHT22;50545;56.064;26.178;2023-06-24T09:32:31;25.10;58.90
64226;DHT22;50545;56.064;26.178;2023-06-24T09:34:58;25.10;58.50
64226;DHT22;50545;56.064;26.178;2023-06-24T09:37:30;24.90;57.80
64226;DHT22;50545;56.064;26.178;2023-06-24T09:40:00;24.70;61.50
64226;DHT22;50545;56.064;26.178;2023-06-24T09:42:32;24.40;58.60
64226;DHT22;50545;56.064;26.178;2023-06-24T09:45:04;24.30;59.60
64226;DHT22;50545;56.064;26.178;2023-06-24T09:47:32;24.00;59.10
64226;DHT22;50545;56.064;26.178;2023-06-24T09:50:00;23.90;59.90
64226;DHT22;50545;56.064;26.178;2023-06-24T09:52:31;23.90;61.20
64226;DHT22;50545;56.064;26.178;2023-06-24T09:55:01;24.10;60.30
64226;DHT22;50545;56.064;26.178;2023-06-24T09:57:32;24.20;59.00
64226;DHT22;50545;56.064;26.178;2023-06-24T10:00:02;24.50;58.60
64226;DHT22;50545;56.064;26.178;2023-06-24T10:02:31;24.80;53.90
64226;DHT22;50545;56.064;26.178;2023-06-24T10:05:00;24.80;54.90
64226;DHT22;50545;56.064;26.178;2023-06-24T10:07:28;25.20;56.80
64226;DHT22;50545;56.064;26.178;2023-06-24T10:09:56;25.40;55.30
64226;DHT22;50545;56.064;26.178;2023-06-24T10:12:24;25.50;53.30
64226;DHT22;50545;56.064;26.178;2023-06-24T10:14:53;25.70;54.10
64226;DHT22;50545;56.064;26.178;2023-06-24T10:17:20;25.80;51.00
64226;DHT22;50545;56.064;26.178;2023-06-24T10:19:48;25.70;50.40
64226;DHT22;50545;56.064;26.178;2023-06-24T10:22:24;25.50;51.20
64226;DHT22;50545;56.064;26.178;2023-06-24T10:24:53;25.60;51.70
64226;DHT22;50545;56.064;26.178;2023-06-24T10:27:23;25.70;53.10
64226;DHT22;50545;56.064;26.178;2023-06-24T10:29:52;25.80;52.10
64226;DHT22;50545;56.064;26.178;2023-06-24T10:32:21;25.90;49.60
64226;DHT22;50545;56.064;26.178;2023-06-24T10:34:56;26.10;47.30
64226;DHT22;50545;56.064;26.178;2023-06-24T10:37:31;26.00;47.00
64226;DHT22;50545;56.064;26.178;2023-06-24T10:40:02;25.90;46.90
64226;DHT22;50545;56.064;26.178;2023-06-24T10:42:36;25.90;45.60
64226;DHT22;50545;56.064;26.178;2023-06-24T10:47:38;25.90;46.20
64226;DHT22;50545;56.064;26.178;2023-06-24T10:50:07;26.20;42.20
64226;DHT22;50545;56.064;26.178;2023-06-24T10:52:42;26.50;40.90
64226;DHT22;50545;56.064;26.178;2023-06-24T10:55:13;26.70;41.30
64226;DHT22;50545;56.064;26.178;2023-06-24T10:57:40;27.00;41.40
64226;DHT22;50545;56.064;26.178;2023-06-24T11:00:08;27.40;42.10
64226;DHT22;50545;56.064;26.178;2023-06-24T11:02:36;27.50;41.10
64226;DHT22;50545;56.064;26.178;2023-06-24T11:05:05;27.70;42.70
64226;DHT22;50545;56.064;26.178;2023-06-24T11:07:33;27.70;40.40
64226;DHT22;50545;56.064;26.178;2023-06-24T11:10:04;27.90;42.80
64226;DHT22;50545;56.064;26.178;2023-06-24T11:12:35;28.10;43.20
64226;DHT22;50545;56.064;26.178;2023-06-24T11:15:10;28.20;41.60
64226;DHT22;50545;56.064;26.178;2023-06-24T11:17:38;27.90;42.00
64226;DHT22;50545;56.064;26.178;2023-06-24T11:20:08;27.50;44.10
64226;DHT22;50545;56.064;26.178;2023-06-24T11:22:35;27.50;44.80
64226;DHT22;50545;56.064;26.178;2023-06-24T11:25:03;27.30;43.50
64226;DHT22;50545;56.064;26.178;2023-06-24T11:27:31;26.90;47.10
64226;DHT22;50545;56.064;26.178;2023-06-24T11:30:00;26.80;47.50
64226;DHT22;50545;56.064;26.178;2023-06-24T11:32:39;26.80;46.60
64226;DHT22;50545;56.064;26.178;2023-06-24T11:35:08;26.80;46.70
64226;DHT22;50545;56.064;26.178;2023-06-24T11:37:36;26.70;47.30
64226;DHT22;50545;56.064;26.178;2023-06-24T11:40:08;27.00;49.50
64226;DHT22;50545;56.064;26.178;2023-06-24T11:42:39;27.40;48.30
64226;DHT22;50545;56.064;26.178;2023-06-24T11:45:12;27.80;46.90
64226;DHT22;50545;56.064;26.178;2023-06-24T11:47:42;27.90;46.50
64226;DHT22;50545;56.064;26.178;2023-06-24T11:50:10;28.10;45.90
64226;DHT22;50545;56.064;26.178;2023-06-24T11:52:44;28.00;49.60
64226;DHT22;50545;56.064;26.178;2023-06-24T11:55:22;28.10;46.00
64226;DHT22;50545;56.064;26.178;2023-06-24T12:00:30;28.20;45.50
64226;DHT22;50545;56.064;26.178;2023-06-24T12:02:59;28.30;47.10
64226;DHT22;50545;56.064;26.178;2023-06-24T12:05:32;28.30;44.90
64226;DHT22;50545;56.064;26.178;2023-06-24T12:08:01;28.30;44.00
64226;DHT22;50545;56.064;26.178;2023-06-24T12:10:29;28.00;46.60
64226;DHT22;50545;56.064;26.178;2023-06-24T12:12:57;28.30;46.20
64226;DHT22;50545;56.064;26.178;2023-06-24T12:15:25;28.40;45.10
64226;DHT22;50545;56.064;26.178;2023-06-24T12:17:53;28.50;46.50
64226;DHT22;50545;56.064;26.178;2023-06-24T12:20:21;28.50;47.00
64226;DHT22;50545;56.064;26.178;2023-06-24T12:22:48;28.60;44.80
64226;DHT22;50545;56.064;26.178;2023-06-24T12:25:16;28.70;44.00
64226;DHT22;50545;56.064;26.178;2023-06-24T12:27:44;29.00;45.80
64226;DHT22;50545;56.064;26.178;2023-06-24T12:30:12;28.90;44.00
64226;DHT22;50545;56.064;26.178;2023-06-24T12:32:40;29.10;45.90
64226;DHT22;50545;56.064;26.178;2023-06-24T12:35:08;29.30;45.20
64226;DHT22;50545;56.064;26.178;2023-06-24T12:37:36;29.40;43.40
64226;DHT22;50545;56.064;26.178;2023-06-24T12:40:04;29.40;45.60
64226;DHT22;50545;56.064;26.178;2023-06-24T12:42:32;29.40;43.10
64226;DHT22;50545;56.064;26.178;2023-06-24T12:45:00;29.20;44.60
64226;DHT22;50545;56.064;26.178;2023-06-24T12:47:27;29.00;43.50
64226;DHT22;50545;56.064;26.178;2023-06-24T12:49:54;28.90;44.30
64226;DHT22;50545;56.064;26.178;2023-06-24T12:52:21;29.10;45.00
64226;DHT22;50545;56.064;26.178;2023-06-24T12:54:49;29.50;44.20
64226;DHT22;50545;56.064;26.178;2023-06-24T12:57:16;29.60;43.00
64226;DHT22;50545;56.064;26.178;2023-06-24T12:59:43;29.70;40.30
64226;DHT22;50545;56.064;26.178;2023-06-24T13:02:10;29.70;41.90
64226;DHT22;50545;56.064;26.178;2023-06-24T13:04:38;29.50;41.20
64226;DHT22;50545;56.064;26.178;2023-06-24T13:07:05;29.30;41.40
64226;DHT22;50545;56.064;26.178;2023-06-24T13:09:34;29.20;41.80
64226;DHT22;50545;56.064;26.178;2023-06-24T13:12:01;29.20;43.90
64226;DHT22;50545;56.064;26.178;2023-06-24T13:14:28;29.10;43.20
64226;DHT22;50545;56.064;26.178;2023-06-24T13:16:55;29.10;43.20
64226;DHT22;50545;56.064;26.178;2023-06-24T13:19:23;29.20;45.00
64226;DHT22;50545;56.064;26.178;2023-06-24T13:21:50;29.10;43.20
64226;DHT22;50545;56.064;26.178;2023-06-24T13:24:17;29.00;44.20
64226;DHT22;50545;56.064;26.178;2023-06-24T13:26:45;29.10;44.10
64226;DHT22;50545;56.064;26.178;2023-06-24T13:29:12;29.20;43.60
64226;DHT22;50545;56.064;26.178;2023-06-24T13:31:40;29.60;42.60
64226;DHT22;50545;56.064;26.178;2023-06-24T13:34:07;29.70;42.70
64226;DHT22;50545;56.064;26.178;2023-06-24T13:36:36;29.80;42.70
64226;DHT22;50545;56.064;26.178;2023-06-24T13:39:05;29.90;43.10
64226;DHT22;50545;56.064;26.178;2023-06-24T13:41:33;29.80;44.30
64226;DHT22;50545;56.064;26.178;2023-06-24T13:44:05;29.30;43.60
64226;DHT22;50545;56.064;26.178;2023-06-24T13:46:33;28.60;45.70
64226;DHT22;50545;56.064;26.178;2023-06-24T13:49:00;27.80;47.20
64226;DHT22;50545;56.064;26.178;2023-06-24T13:51:32;27.40;48.10
64226;DHT22;50545;56.064;26.178;2023-06-24T13:53:59;27.20;48.40
64226;DHT22;50545;56.064;26.178;2023-06-24T13:56:26;27.30;50.40
64226;DHT22;50545;56.064;26.178;2023-06-24T13:58:59;28.00;46.80
64226;DHT22;50545;56.064;26.178;2023-06-24T14:01:27;28.50;44.70
64226;DHT22;50545;56.064;26.178;2023-06-24T14:03:58;28.90;43.30
64226;DHT22;50545;56.064;26.178;2023-06-24T14:06:26;29.20;43.70
64226;DHT22;50545;56.064;26.178;2023-06-24T14:08:53;29.20;42.90
64226;DHT22;50545;56.064;26.178;2023-06-24T14:11:20;29.40;41.90
64226;DHT22;50545;56.064;26.178;2023-06-24T14:13:48;29.10;42.20
64226;DHT22;50545;56.064;26.178;2023-06-24T14:16:16;28.50;43.10
64226;DHT22;50545;56.064;26.178;2023-06-24T14:18:44;28.50;43.90
64226;DHT22;50545;56.064;26.178;2023-06-24T14:21:11;28.60;42.90
64226;DHT22;50545;56.064;26.178;2023-06-24T14:23:38;28.70;44.30
64226;DHT22;50545;56.064;26.178;2023-06-24T14:26:07;28.80;43.90
64226;DHT22;50545;56.064;26.178;2023-06-24T14:28:34;29.20;43.90
64226;DHT22;50545;56.064;26.178;2023-06-24T14:31:01;29.70;42.10
64226;DHT22;50545;56.064;26.178;2023-06-24T14:33:29;30.00;41.80
64226;DHT22;50545;56.064;26.178;2023-06-24T14:35:56;30.10;41.20
64226;DHT22;50545;56.064;26.178;2023-06-24T14:38:23;30.20;41.00
64226;DHT22;50545;56.064;26.178;2023-06-24T14:40:54;30.00;40.10
64226;DHT22;50545;56.064;26.178;2023-06-24T14:43:24;29.60;41.60
64226;DHT22;50545;56.064;26.178;2023-06-24T14:45:51;29.50;39.80
64226;DHT22;50545;56.064;26.178;2023-06-24T14:48:18;29.30;41.30
64226;DHT22;50545;56.064;26.178;2023-06-24T14:50:46;29.20;41.70
64226;DHT22;50545;56.064;26.178;2023-06-24T14:53:13;29.10;41.20
64226;DHT22;50545;56.064;26.178;2023-06-24T14:55:40;29.40;42.30
64226;DHT22;50545;56.064;26.178;2023-06-24T14:58:07;29.40;40.40
64226;DHT22;50545;56.064;26.178;2023-06-24T15:00:35;29.20;41.30
64226;DHT22;50545;56.064;26.178;2023-06-24T15:03:03;29.10;41.50
64226;DHT22;50545;56.064;26.178;2023-06-24T15:05:30;29.30;40.80
64226;DHT22;50545;56.064;26.178;2023-06-24T15:08:00;29.20;42.10
64226;DHT22;50545;56.064;26.178;2023-06-24T15:10:27;29.30;40.90
64226;DHT22;50545;56.064;26.178;2023-06-24T15:12:55;29.30;40.10
64226;DHT22;50545;56.064;26.178;2023-06-24T15:15:23;29.50;39.80
64226;DHT22;50545;56.064;26.178;2023-06-24T15:17:50;29.70;40.00
64226;DHT22;50545;56.064;26.178;2023-06-24T15:20:18;29.60;39.90
64226;DHT22;50545;56.064;26.178;2023-06-24T15:22:45;29.60;40.00
64226;DHT22;50545;56.064;26.178;2023-06-24T15:25:12;29.60;40.00
64226;DHT22;50545;56.064;26.178;2023-06-24T15:27:39;29.50;42.20
64226;DHT22;50545;56.064;26.178;2023-06-24T15:30:07;29.70;42.60
64226;DHT22;50545;56.064;26.178;2023-06-24T15:32:34;29.80;39.60
64226;DHT22;50545;56.064;26.178;2023-06-24T15:35:03;29.40;39.10